Time;durP1;ratioP1;P1;durP2;ratioP2;P2;SDS_P1;SDS_P2;PMS_P1;PMS_P2;Temp;Humidity;BMP_temperature;BMP_pressure;BME280_temperature;BME280_humidity;BME280_pressure;Samples;Min_cycle;Max_cycle;Signal;HPM_P1;HPM_P2
2021/05/14 00:01:53;;;;;;;5.93;1.58;;;17.60;95.80;;;;;;5049067;28;20363;-81
2021/05/14 00:04:20;;;;;;;7.00;1.65;;;17.60;96.00;;;;;;5049016;28;20524;-81
2021/05/14 00:06:47;;;;;;;7.50;1.42;;;17.50;96.20;;;;;;5048625;28;20517;-80
2021/05/14 00:09:14;;;;;;;5.80;1.65;;;17.50;96.30;;;;;;5048838;28;20036;-81
2021/05/14 00:11:41;;;;;;;4.35;1.45;;;17.50;96.30;;;;;;5048790;28;20060;-81
2021/05/14 00:14:07;;;;;;;6.90;1.40;;;17.50;96.20;;;;;;5048778;28;20481;-81
2021/05/14 00:16:34;;;;;;;8.88;2.13;;;17.50;96.10;;;;;;5049316;28;20094;-77
2021/05/14 00:19:00;;;;;;;5.45;2.60;;;17.50;96.20;;;;;;5029494;28;20025;-80
2021/05/14 00:21:32;;;;;;;7.47;1.38;;;17.50;96.10;;;;;;5042189;28;20195;-81
2021/05/14 00:23:59;;;;;;;7.05;1.58;;;17.50;96.20;;;;;;5035282;28;20018;-81
2021/05/14 00:26:25;;;;;;;3.63;1.15;;;17.50;96.30;;;;;;5034969;28;20041;-78
2021/05/14 00:28:51;;;;;;;6.63;1.33;;;17.50;96.30;;;;;;5035477;28;20049;-81
2021/05/14 00:31:18;;;;;;;7.32;1.83;;;17.50;96.20;;;;;;5035054;28;20061;-81
2021/05/14 00:33:44;;;;;;;5.90;1.58;;;17.50;96.20;;;;;;5035141;28;20156;-81
2021/05/14 00:36:11;;;;;;;6.87;1.10;;;17.50;96.10;;;;;;5035213;28;20061;-81
2021/05/14 00:38:37;;;;;;;10.85;2.03;;;17.50;96.10;;;;;;5035133;28;20393;-81
2021/05/14 00:41:04;;;;;;;5.82;2.03;;;17.50;96.10;;;;;;5035048;28;20029;-79
2021/05/14 00:43:31;;;;;;;8.20;1.70;;;17.50;96.10;;;;;;5035151;28;20026;-81
2021/05/14 00:45:57;;;;;;;5.43;1.60;;;17.40;96.00;;;;;;5034769;28;20065;-79
2021/05/14 00:48:23;;;;;;;8.35;2.47;;;17.40;96.00;;;;;;5034925;28;20560;-81
2021/05/14 00:50:49;;;;;;;11.38;1.77;;;17.40;96.00;;;;;;5035052;28;20109;-78
2021/05/14 00:53:15;;;;;;;3.70;1.88;;;17.40;96.00;;;;;;5034884;28;20461;-80
2021/05/14 00:55:41;;;;;;;7.88;1.65;;;17.40;96.00;;;;;;5034768;28;20505;-81
2021/05/14 00:58:07;;;;;;;4.22;1.25;;;17.30;96.00;;;;;;5034590;28;20030;-79
2021/05/14 01:00:33;;;;;;;8.27;1.65;;;17.30;95.90;;;;;;5034722;28;20021;-81
2021/05/14 01:02:59;;;;;;;5.30;1.60;;;17.20;95.90;;;;;;5034616;28;20039;-81
2021/05/14 01:05:25;;;;;;;4.55;1.02;;;17.30;96.00;;;;;;5016969;28;20280;-81
2021/05/14 01:07:51;;;;;;;7.88;2.03;;;17.30;95.90;;;;;;5034513;28;20053;-77
2021/05/14 01:10:18;;;;;;;5.53;1.58;;;17.30;95.90;;;;;;5016874;28;20032;-77
2021/05/14 01:12:45;;;;;;;6.70;1.85;;;17.30;95.90;;;;;;5034490;28;20030;-81
2021/05/14 01:15:11;;;;;;;8.60;2.33;;;17.20;95.90;;;;;;5034290;28;20029;-81
2021/05/14 01:17:37;;;;;;;4.55;2.10;;;17.20;95.90;;;;;;5016778;28;20029;-81
2021/05/14 01:20:05;;;;;;;6.82;1.40;;;17.20;95.90;;;;;;5034231;28;20064;-81
2021/05/14 01:22:31;;;;;;;3.30;1.00;;;17.10;95.80;;;;;;5034189;28;20025;-81
2021/05/14 01:24:57;;;;;;;5.10;1.23;;;17.10;95.80;;;;;;5034232;28;20490;-77
2021/05/14 01:27:23;;;;;;;6.43;1.40;;;17.00;96.00;;;;;;5034030;28;20037;-81
2021/05/14 01:29:50;;;;;;;8.63;1.92;;;17.00;96.10;;;;;;5020027;28;20025;-80
2021/05/14 01:32:17;;;;;;;9.38;2.28;;;17.00;96.40;;;;;;5047792;28;20478;-80
2021/05/14 01:34:43;;;;;;;10.60;1.65;;;17.00;96.50;;;;;;5033976;28;20021;-81
2021/05/14 01:37:09;;;;;;;11.20;1.80;;;17.00;96.80;;;;;;5033881;28;20406;-81
2021/05/14 01:39:36;;;;;;;4.75;1.50;;;17.00;96.50;;;;;;5033908;28;20029;-79
2021/05/14 01:42:03;;;;;;;8.57;2.85;;;17.10;96.60;;;;;;5016077;28;20040;-81
2021/05/14 01:44:29;;;;;;;7.80;2.10;;;17.00;96.60;;;;;;5033756;28;20041;-81
2021/05/14 01:46:56;;;;;;;6.78;1.48;;;17.10;96.60;;;;;;5033686;28;20088;-81
2021/05/14 01:49:22;;;;;;;7.22;1.60;;;17.00;96.50;;;;;;5033717;28;20026;-80
2021/05/14 01:51:48;;;;;;;5.00;1.20;;;17.00;96.50;;;;;;5033793;28;20040;-80
2021/05/14 01:54:15;;;;;;;7.45;1.42;;;17.00;96.70;;;;;;5033600;28;20025;-81
2021/05/14 01:56:48;;;;;;;8.30;2.42;;;17.00;96.90;;;;;;5033548;28;20033;-81
2021/05/14 01:59:14;;;;;;;9.40;1.95;;;16.90;96.90;;;;;;5033522;28;20033;-81
2021/05/14 02:01:41;;;;;;;10.00;2.10;;;16.90;97.10;;;;;;5033502;28;20375;-80
2021/05/14 02:04:07;;;;;;;4.95;1.50;;;16.90;97.20;;;;;;5033286;28;20031;-81
2021/05/14 02:06:34;;;;;;;5.65;1.77;;;16.90;97.30;;;;;;5032993;28;20055;-76
2021/05/14 02:09:06;;;;;;;11.48;1.80;;;16.90;97.50;;;;;;5033298;28;20029;-80
2021/05/14 02:11:33;;;;;;;4.70;1.33;;;16.80;97.50;;;;;;5033350;28;20025;-78
2021/05/14 02:14:00;;;;;;;11.07;2.45;;;16.80;97.60;;;;;;5033560;28;20017;-80
2021/05/14 02:16:26;;;;;;;8.20;1.77;;;16.80;97.60;;;;;;5033155;28;20033;-80
2021/05/14 02:18:52;;;;;;;5.57;1.98;;;16.70;97.80;;;;;;5033327;28;20423;-81
2021/05/14 02:21:18;;;;;;;7.28;2.08;;;16.70;97.80;;;;;;5033041;28;20068;-81
2021/05/14 02:23:44;;;;;;;5.78;1.55;;;16.70;97.70;;;;;;5033008;28;20029;-80
2021/05/14 02:26:10;;;;;;;7.90;1.70;;;16.60;97.80;;;;;;5032921;28;20140;-80
2021/05/14 02:28:36;;;;;;;8.68;2.35;;;16.60;97.80;;;;;;5033257;28;20028;-79
2021/05/14 02:31:03;;;;;;;8.98;2.17;;;16.50;97.90;;;;;;5032989;28;20105;-80
2021/05/14 02:33:29;;;;;;;5.00;1.30;;;16.50;97.90;;;;;;5032842;28;20032;-80
2021/05/14 02:35:55;;;;;;;7.15;1.65;;;16.50;98.00;;;;;;5032804;28;20521;-78
2021/05/14 02:38:21;;;;;;;6.23;1.20;;;16.50;98.10;;;;;;5032865;28;20049;-80
2021/05/14 02:40:48;;;;;;;7.93;1.52;;;16.50;98.10;;;;;;5033458;28;20068;-80
2021/05/14 02:43:14;;;;;;;9.82;1.83;;;16.50;98.10;;;;;;5051081;28;20033;-80
2021/05/14 02:45:40;;;;;;;6.25;2.42;;;16.50;98.20;;;;;;5032849;28;20036;-80
2021/05/14 02:48:06;;;;;;;9.80;1.40;;;16.40;98.40;;;;;;5032609;28;20389;-80
2021/05/14 02:50:33;;;;;;;4.05;1.77;;;16.40;98.50;;;;;;5032740;28;20502;-80
2021/05/14 02:52:59;;;;;;;8.68;2.25;;;16.40;98.50;;;;;;5032654;28;20109;-81
2021/05/14 02:55:25;;;;;;;6.00;1.92;;;16.40;98.50;;;;;;5032545;28;20111;-80
2021/05/14 02:57:53;;;;;;;8.07;1.98;;;16.40;98.60;;;;;;5032789;28;20029;-80
2021/05/14 03:00:19;;;;;;;7.50;1.95;;;16.40;98.60;;;;;;5032597;28;20359;-81
2021/05/14 03:02:45;;;;;;;10.65;2.17;;;16.40;98.50;;;;;;5032501;28;20029;-80
2021/05/14 03:05:11;;;;;;;3.97;1.27;;;16.40;98.50;;;;;;5032420;28;20032;-80
2021/05/14 03:07:37;;;;;;;4.75;1.60;;;16.40;98.50;;;;;;5011220;28;20521;-81
2021/05/14 03:10:05;;;;;;;9.68;1.80;;;16.40;98.60;;;;;;5012722;28;20033;-80
2021/05/14 03:12:31;;;;;;;7.57;1.80;;;16.40;98.60;;;;;;5012857;28;20026;-81
2021/05/14 03:14:57;;;;;;;6.00;1.13;;;16.50;98.50;;;;;;5012825;28;20092;-80
2021/05/14 03:17:23;;;;;;;4.03;1.67;;;16.50;98.50;;;;;;5011566;28;20026;-80
2021/05/14 03:19:49;;;;;;;9.40;1.85;;;16.50;98.70;;;;;;5012710;28;20319;-81
2021/05/14 03:22:15;;;;;;;7.68;1.95;;;16.50;98.40;;;;;;5011337;28;20443;-81
2021/05/14 03:24:41;;;;;;;6.78;1.70;;;16.50;98.40;;;;;;5012637;28;20379;-80
2021/05/14 03:27:07;;;;;;;5.90;1.70;;;16.50;98.30;;;;;;5012418;28;20061;-80
2021/05/14 03:29:33;;;;;;;6.05;1.65;;;16.50;98.30;;;;;;5012756;28;20026;-80
2021/05/14 03:31:59;;;;;;;5.32;1.17;;;16.50;98.20;;;;;;5012605;28;20041;-80
2021/05/14 03:34:25;;;;;;;11.90;2.00;;;16.50;98.30;;;;;;5012445;28;20022;-80
2021/05/14 03:36:50;;;;;;;7.20;1.60;;;16.40;98.40;;;;;;5012439;28;20080;-80
2021/05/14 03:39:21;;;;;;;6.07;2.50;;;16.40;98.40;;;;;;5012440;28;20022;-80
2021/05/14 03:41:50;;;;;;;5.43;1.45;;;16.50;98.40;;;;;;5012425;28;20030;-76
2021/05/14 03:44:16;;;;;;;7.70;2.65;;;16.40;98.40;;;;;;5012301;28;20018;-80
2021/05/14 03:46:42;;;;;;;4.30;1.50;;;16.40;98.40;;;;;;5012561;28;20483;-81
2021/05/14 03:49:08;;;;;;;7.63;2.03;;;16.50;98.30;;;;;;5012384;28;20415;-80
2021/05/14 03:51:38;;;;;;;7.22;1.63;;;16.50;98.20;;;;;;5013084;28;20467;-81
2021/05/14 03:54:05;;;;;;;7.40;2.13;;;16.60;98.00;;;;;;5031712;28;20010;-78
2021/05/14 03:56:31;;;;;;;5.95;1.13;;;16.60;98.00;;;;;;5016131;28;20056;-81
2021/05/14 03:58:59;;;;;;;10.23;2.38;;;16.60;97.90;;;;;;5016039;28;20026;-81
2021/05/14 04:01:27;;;;;;;12.73;2.00;;;16.60;98.00;;;;;;5014512;28;20022;-76
2021/05/14 04:03:53;;;;;;;8.32;2.20;;;16.60;98.00;;;;;;5015913;28;20057;-80
2021/05/14 04:06:19;;;;;;;7.20;1.92;;;16.60;98.00;;;;;;5022633;28;20084;-81
2021/05/14 04:08:45;;;;;;;8.20;1.73;;;16.60;98.10;;;;;;5035630;28;20585;-81
2021/05/14 04:16:39;;;;;;;5.25;1.38;;;16.70;98.20;;;;;;5035786;28;20451;-81
2021/05/14 04:19:05;;;;;;;7.33;2.17;;;16.60;98.10;;;;;;5035306;28;20068;-79
2021/05/14 04:21:31;;;;;;;5.60;1.30;;;16.70;98.20;;;;;;5035482;28;20276;-80
2021/05/14 04:23:57;;;;;;;11.40;2.10;;;16.80;98.10;;;;;;5035593;28;20440;-80
2021/05/14 04:26:23;;;;;;;6.27;1.53;;;16.90;97.90;;;;;;5035279;28;20080;-79
2021/05/14 04:28:49;;;;;;;6.32;1.92;;;17.00;97.90;;;;;;5035261;28;20268;-80
2021/05/14 04:31:15;;;;;;;12.07;2.13;;;17.10;97.80;;;;;;5035068;28;20033;-79
2021/05/14 04:33:40;;;;;;;11.63;2.50;;;17.10;97.60;;;;;;5035168;28;20025;-80
2021/05/14 04:36:06;;;;;;;5.80;1.63;;;17.10;97.60;;;;;;5035044;28;20470;-79
2021/05/14 04:38:32;;;;;;;6.73;1.60;;;17.20;97.60;;;;;;5035304;28;20275;-80
2021/05/14 04:40:58;;;;;;;6.47;1.97;;;17.20;97.60;;;;;;5017326;28;20350;-79
2021/05/14 04:43:24;;;;;;;3.20;1.17;;;17.20;97.60;;;;;;5034916;28;20256;-80
2021/05/14 04:45:50;;;;;;;17.27;2.93;;;17.30;97.50;;;;;;5034961;28;20276;-79
2021/05/14 04:48:16;;;;;;;8.05;1.80;;;17.30;97.50;;;;;;5034803;28;20354;-79
2021/05/14 04:50:42;;;;;;;4.10;1.33;;;17.40;97.50;;;;;;5034870;28;20064;-79
2021/05/14 04:53:10;;;;;;;7.07;1.17;;;17.40;97.40;;;;;;5034779;28;20272;-80
2021/05/14 04:55:36;;;;;;;9.70;1.67;;;17.40;97.40;;;;;;5034762;28;20037;-79
2021/05/14 04:58:02;;;;;;;4.97;1.45;;;17.40;97.30;;;;;;5034556;28;20022;-80
2021/05/14 05:00:28;;;;;;;4.72;1.92;;;17.50;97.30;;;;;;5034763;28;20089;-80
2021/05/14 05:02:55;;;;;;;3.70;1.55;;;17.50;97.40;;;;;;5017415;28;20383;-80
2021/05/14 05:05:21;;;;;;;3.00;1.27;;;17.50;97.00;;;;;;5047122;28;20501;-78
2021/05/14 05:07:47;;;;;;;3.85;1.40;;;17.50;96.90;;;;;;5038197;28;20042;-80
2021/05/14 05:10:14;;;;;;;7.95;1.05;;;17.50;97.00;;;;;;5034533;28;20021;-79
2021/05/14 05:12:40;;;;;;;5.03;1.30;;;17.60;96.90;;;;;;5034522;28;20029;-76
2021/05/14 05:15:08;;;;;;;3.55;1.58;;;17.60;96.60;;;;;;5016564;28;20033;-80
2021/05/14 05:17:34;;;;;;;5.95;1.48;;;17.70;96.50;;;;;;5034290;28;20030;-80
2021/05/14 05:20:00;;;;;;;6.38;1.63;;;17.70;96.30;;;;;;5034325;28;20041;-80
2021/05/14 05:22:25;;;;;;;5.63;1.33;;;17.70;96.20;;;;;;5034131;28;20021;-76
2021/05/14 05:24:51;;;;;;;10.02;1.95;;;17.70;96.30;;;;;;5016580;28;20284;-80
2021/05/14 05:27:17;;;;;;;3.80;1.37;;;17.70;96.30;;;;;;5034024;28;20041;-80
2021/05/14 05:29:43;;;;;;;13.55;2.25;;;17.70;96.10;;;;;;5034248;28;20276;-80
2021/05/14 05:32:09;;;;;;;6.47;1.60;;;17.70;96.00;;;;;;5034012;28;20040;-80
2021/05/14 05:34:35;;;;;;;3.67;1.02;;;17.70;96.20;;;;;;5033812;28;20480;-76
2021/05/14 05:37:01;;;;;;;4.32;1.75;;;17.70;96.00;;;;;;5033995;28;20035;-77
2021/05/14 05:39:27;;;;;;;5.60;1.17;;;17.80;96.00;;;;;;5034019;28;20471;-80
2021/05/14 05:41:53;;;;;;;4.40;1.58;;;17.90;96.10;;;;;;5033986;28;20083;-80
2021/05/14 05:44:19;;;;;;;3.27;0.83;;;17.80;96.00;;;;;;5033709;28;20068;-81
2021/05/14 05:46:45;;;;;;;2.03;1.00;;;17.80;96.10;;;;;;5033612;28;20375;-79
2021/05/14 05:49:12;;;;;;;2.78;1.10;;;17.90;96.40;;;;;;5033640;28;20028;-81
2021/05/14 05:51:38;;;;;;;3.03;1.10;;;17.90;96.60;;;;;;5033657;28;20056;-77
2021/05/14 05:54:05;;;;;;;8.15;1.38;;;17.90;96.70;;;;;;5015891;28;20025;-77
2021/05/14 05:56:31;;;;;;;10.00;1.10;;;18.00;96.50;;;;;;5033594;28;20140;-80
2021/05/14 05:58:57;;;;;;;4.47;0.98;;;18.00;96.40;;;;;;5033433;28;20181;-81
2021/05/14 06:01:23;;;;;;;3.55;1.00;;;18.00;96.50;;;;;;5033511;28;20115;-81
2021/05/14 06:03:49;;;;;;;2.13;0.80;;;18.10;96.10;;;;;;5033436;28;20037;-77
2021/05/14 06:06:15;;;;;;;7.10;1.13;;;18.10;96.20;;;;;;5033110;28;20401;-80
2021/05/14 06:08:41;;;;;;;7.70;1.40;;;18.20;96.20;;;;;;5033568;28;20026;-80
2021/05/14 06:11:07;;;;;;;6.13;0.95;;;18.20;95.80;;;;;;5033244;28;20037;-81
2021/05/14 06:13:34;;;;;;;7.05;1.45;;;18.20;95.40;;;;;;5033404;28;20036;-81
2021/05/14 06:16:02;;;;;;;6.20;1.63;;;18.20;95.50;;;;;;5037600;28;20026;-81
2021/05/14 06:18:52;;;;;;;3.72;1.35;;;18.30;95.70;;;;;;5042475;28;20493;-81
2021/05/14 06:21:17;;;;;;;5.32;1.50;;;18.30;96.20;;;;;;5032947;28;20049;-81
2021/05/14 06:23:43;;;;;;;7.10;1.30;;;18.40;95.90;;;;;;5033109;28;20100;-81
2021/05/14 06:26:09;;;;;;;4.70;1.30;;;18.40;95.10;;;;;;5032841;28;20374;-81
2021/05/14 06:28:35;;;;;;;7.38;2.35;;;18.50;94.90;;;;;;5032909;28;20276;-81
2021/05/14 06:31:01;;;;;;;6.80;1.75;;;18.60;94.80;;;;;;5033032;28;20029;-81
2021/05/14 06:33:27;;;;;;;4.07;2.03;;;18.70;95.00;;;;;;5032878;28;20061;-81
2021/05/14 06:35:56;;;;;;;4.22;1.13;;;18.80;94.70;;;;;;5033144;28;20034;-81
2021/05/14 06:38:23;;;;;;;7.57;1.33;;;18.80;94.50;;;;;;5032878;28;20025;-81
2021/05/14 06:40:49;;;;;;;4.95;1.30;;;18.80;93.80;;;;;;5033014;28;20083;-81
2021/05/14 06:43:15;;;;;;;2.15;1.27;;;18.80;93.60;;;;;;5032720;28;20033;-82
2021/05/14 06:45:41;;;;;;;4.27;1.23;;;18.90;93.70;;;;;;5032740;28;20025;-81
2021/05/14 06:48:08;;;;;;;9.05;1.38;;;19.00;93.20;;;;;;5032610;28;20103;-82
2021/05/14 06:50:35;;;;;;;6.85;1.88;;;19.00;92.90;;;;;;5032603;28;20021;-81
2021/05/14 06:53:03;;;;;;;4.03;1.48;;;19.10;92.10;;;;;;5015125;28;20029;-82
2021/05/14 06:55:28;;;;;;;6.05;1.35;;;19.20;92.10;;;;;;5032664;28;20029;-81
2021/05/14 06:57:54;;;;;;;5.13;0.80;;;19.30;92.10;;;;;;5032627;28;20489;-82
2021/05/14 07:00:20;;;;;;;4.37;1.00;;;19.30;92.10;;;;;;5032470;28;20382;-82
2021/05/14 07:02:47;;;;;;;5.28;1.48;;;19.40;91.40;;;;;;5032439;28;20063;-82
2021/05/14 07:05:14;;;;;;;4.28;1.55;;;19.40;90.90;;;;;;5032451;28;20478;-81
2021/05/14 07:07:41;;;;;;;2.70;1.50;;;19.50;91.10;;;;;;5032279;28;20041;-76
2021/05/14 07:10:09;;;;;;;3.67;0.80;;;19.60;91.10;;;;;;5032455;28;20390;-81
2021/05/14 07:12:35;;;;;;;3.28;1.48;;;19.60;90.10;;;;;;5032485;28;20429;-82
2021/05/14 07:15:07;;;;;;;3.83;1.15;;;19.60;90.30;;;;;;5032371;28;20035;-81
2021/05/14 07:17:33;;;;;;;6.63;1.50;;;19.70;91.30;;;;;;5032295;28;20057;-81
2021/05/14 07:19:59;;;;;;;4.65;1.90;;;19.80;91.00;;;;;;5014662;28;20466;-76
2021/05/14 07:22:25;;;;;;;6.43;1.38;;;19.90;90.50;;;;;;5032245;28;20021;-81
2021/05/14 07:24:51;;;;;;;3.15;1.20;;;19.90;91.00;;;;;;5032322;28;20100;-82
2021/05/14 07:27:18;;;;;;;12.45;2.00;;;19.90;90.40;;;;;;5033815;28;20139;-77
2021/05/14 07:29:43;;;;;;;8.32;1.90;;;20.00;90.90;;;;;;5031404;28;20394;-82
2021/05/14 07:32:11;;;;;;;2.13;1.20;;;20.10;91.10;;;;;;5036217;28;20025;-82
2021/05/14 07:34:37;;;;;;;4.28;1.60;;;20.20;90.50;;;;;;5036125;28;20029;-81
2021/05/14 07:37:04;;;;;;;6.05;1.45;;;20.20;90.60;;;;;;5018302;28;20087;-80
2021/05/14 07:39:30;;;;;;;4.30;1.45;;;20.30;89.40;;;;;;5035976;28;20513;-81
2021/05/14 07:41:56;;;;;;;3.47;0.90;;;20.30;89.40;;;;;;5036047;28;20035;-78
2021/05/14 07:44:22;;;;;;;4.15;1.42;;;20.40;88.50;;;;;;5036042;28;20421;-80
2021/05/14 07:46:49;;;;;;;6.50;1.33;;;20.40;87.10;;;;;;5035882;28;20048;-80
2021/05/14 07:49:15;;;;;;;11.95;2.00;;;20.40;87.30;;;;;;5018198;28;20036;-80
2021/05/14 07:51:41;;;;;;;3.13;1.30;;;20.50;87.80;;;;;;5035848;28;20033;-81
2021/05/14 07:54:07;;;;;;;6.00;1.60;;;20.50;88.30;;;;;;5035750;28;20026;-80
2021/05/14 07:56:33;;;;;;;2.50;1.30;;;20.60;87.70;;;;;;5035811;28;20057;-76
2021/05/14 07:58:59;;;;;;;6.53;1.77;;;20.70;87.90;;;;;;5035828;28;20053;-81
2021/05/14 08:01:25;;;;;;;7.53;2.10;;;20.70;87.40;;;;;;5035592;28;20022;-76
2021/05/14 08:03:51;;;;;;;8.27;2.03;;;20.80;86.70;;;;;;5035863;28;20261;-80
2021/05/14 08:06:20;;;;;;;4.40;1.70;;;20.90;87.90;;;;;;5035188;28;20057;-80
2021/05/14 08:08:46;;;;;;;4.13;2.05;;;20.90;86.80;;;;;;5035703;28;20466;-76
2021/05/14 08:11:12;;;;;;;4.90;1.80;;;20.90;88.70;;;;;;5035551;28;20044;-78
2021/05/14 08:13:38;;;;;;;13.65;2.70;;;20.90;89.00;;;;;;5035601;28;20025;-80
2021/05/14 08:16:04;;;;;;;4.25;2.17;;;21.00;89.00;;;;;;5035338;28;20032;-81
2021/05/14 08:18:30;;;;;;;5.95;2.20;;;20.90;89.70;;;;;;5035325;28;20030;-76
2021/05/14 08:20:56;;;;;;;7.13;2.17;;;21.00;89.30;;;;;;5035263;28;20037;-76
2021/05/14 08:23:22;;;;;;;7.80;2.22;;;21.00;89.20;;;;;;5017512;28;20446;-81
2021/05/14 08:25:49;;;;;;;4.00;1.43;;;21.10;86.80;;;;;;5035122;28;20041;-81
2021/05/14 08:28:15;;;;;;;8.88;2.10;;;21.10;86.20;;;;;;5035148;28;20283;-81
2021/05/14 08:30:43;;;;;;;5.40;2.00;;;21.20;85.70;;;;;;5035329;28;20040;-81
2021/05/14 08:33:09;;;;;;;3.47;1.45;;;21.30;85.80;;;;;;5034974;28;20505;-81
2021/05/14 08:35:36;;;;;;;6.82;1.48;;;21.30;82.60;;;;;;5035047;28;20029;-81
2021/05/14 08:38:04;;;;;;;5.03;1.50;;;21.40;82.30;;;;;;5034755;28;20441;-82
2021/05/14 08:40:30;;;;;;;4.85;1.35;;;21.50;83.60;;;;;;5044533;28;20030;-79
2021/05/14 08:42:56;;;;;;;4.70;1.23;;;21.60;85.50;;;;;;5034870;28;20034;-81
2021/05/14 08:45:22;;;;;;;6.83;2.83;;;21.60;83.90;;;;;;5034985;28;20022;-82
2021/05/14 08:47:51;;;;;;;6.70;2.43;;;21.70;85.20;;;;;;5034894;28;20029;-81
2021/05/14 08:50:17;;;;;;;7.00;1.77;;;21.70;84.00;;;;;;5034645;28;20271;-81
2021/05/14 08:52:44;;;;;;;5.43;1.95;;;21.80;83.50;;;;;;5034781;28;20033;-82
2021/05/14 08:55:12;;;;;;;3.97;1.48;;;21.80;82.40;;;;;;5034704;28;20057;-82
2021/05/14 08:57:40;;;;;;;2.72;1.30;;;21.70;79.70;;;;;;5034619;28;20025;-81
2021/05/14 09:00:08;;;;;;;1.55;1.17;;;21.80;80.60;;;;;;5034534;28;20036;-81
2021/05/14 09:02:35;;;;;;;3.38;1.00;;;22.00;80.80;;;;;;5034589;28;20044;-81
2021/05/14 09:05:27;;;;;;;8.77;1.55;;;22.00;80.30;;;;;;5034681;28;20053;-81
2021/05/14 09:07:58;;;;;;;3.90;0.90;;;22.30;80.60;;;;;;5034195;28;20056;-80
2021/05/14 09:10:25;;;;;;;4.78;1.00;;;22.30;80.80;;;;;;5034592;28;20025;-82
2021/05/14 09:12:52;;;;;;;9.05;1.70;;;22.20;82.10;;;;;;5034396;28;20470;-76
2021/05/14 09:15:33;;;;;;;5.10;1.83;;;22.10;82.80;;;;;;5034285;28;20037;-81
2021/05/14 09:18:29;;;;;;;5.38;1.23;;;22.00;82.30;;;;;;5034232;28;20036;-81
2021/05/14 09:21:00;;;;;;;3.63;1.35;;;22.00;81.30;;;;;;5021347;28;20037;-81
2021/05/14 09:23:31;;;;;;;7.63;1.45;;;22.10;82.10;;;;;;5034128;28;20115;-79
2021/05/14 09:26:03;;;;;;;8.00;1.63;;;22.00;81.90;;;;;;5033967;28;20482;-82
2021/05/14 09:28:52;;;;;;;4.03;2.00;;;22.10;82.40;;;;;;5034099;28;20095;-82
2021/05/14 09:31:20;;;;;;;3.72;0.95;;;22.20;82.90;;;;;;5033795;28;20029;-82
2021/05/14 09:33:49;;;;;;;3.03;1.45;;;22.40;83.50;;;;;;5033920;28;20441;-81
2021/05/14 09:36:19;;;;;;;5.18;1.27;;;22.60;82.40;;;;;;5033918;28;20044;-77
2021/05/14 09:38:49;;;;;;;5.57;0.90;;;22.50;80.70;;;;;;5033974;28;20026;-81
2021/05/14 09:41:27;;;;;;;6.15;1.40;;;22.40;79.90;;;;;;5033818;28;20429;-82
2021/05/14 09:43:54;;;;;;;2.17;0.77;;;22.40;80.80;;;;;;5033754;28;20025;-83
2021/05/14 09:46:34;;;;;;;4.15;1.25;;;22.40;80.90;;;;;;5033522;28;20436;-80
2021/05/14 09:49:09;;;;;;;6.68;1.70;;;22.50;81.50;;;;;;5033559;28;20429;-83
2021/05/14 09:51:52;;;;;;;7.40;1.92;;;22.70;81.00;;;;;;5039285;28;20126;-81
2021/05/14 09:54:25;;;;;;;6.03;1.77;;;22.90;80.60;;;;;;5033799;28;20115;-82
2021/05/14 09:57:16;;;;;;;;;;;22.70;81.00;;;;;;5034058;28;20021;-80
2021/05/14 09:59:50;;;;;;;2.30;1.13;;;22.80;81.40;;;;;;5033551;28;19909;-80
2021/05/14 10:02:35;;;;;;;13.90;2.20;;;23.00;81.20;;;;;;5033447;28;20132;-81
2021/05/14 10:05:05;;;;;;;6.07;1.33;;;23.30;79.40;;;;;;5033325;28;20025;-82
2021/05/14 10:07:32;;;;;;;4.80;1.15;;;23.50;79.30;;;;;;5033344;28;20065;-80
2021/05/14 10:10:06;;;;;;;6.63;1.35;;;23.70;78.90;;;;;;5033551;28;20025;-80
2021/05/14 10:12:32;;;;;;;6.45;1.63;;;23.80;78.20;;;;;;5033306;28;20022;-79
2021/05/14 10:15:01;;;;;;;2.80;1.23;;;24.00;77.70;;;;;;5033307;28;20017;-82
2021/05/14 10:17:27;;;;;;;3.45;1.52;;;23.70;77.80;;;;;;5033034;28;20018;-78
2021/05/14 10:19:55;;;;;;;5.40;1.52;;;24.00;78.80;;;;;;5033173;28;20382;-82
2021/05/14 10:22:26;;;;;;;5.93;1.52;;;24.10;77.00;;;;;;5033070;28;20022;-82
2021/05/14 10:24:57;;;;;;;5.28;1.00;;;24.00;76.10;;;;;;5033028;28;20493;-82
2021/05/14 10:27:39;;;;;;;2.90;1.20;;;24.00;76.00;;;;;;5032792;28;20127;-82
2021/05/14 10:30:07;;;;;;;1.77;1.20;;;24.20;75.50;;;;;;5032980;28;20040;-77
2021/05/14 10:32:45;;;;;;;4.95;1.55;;;24.30;75.10;;;;;;5032796;28;20026;-77
2021/05/14 10:35:16;;;;;;;3.53;1.60;;;24.20;75.10;;;;;;5032853;28;20018;-78
2021/05/14 10:37:49;;;;;;;5.13;1.08;;;24.30;75.60;;;;;;5032902;28;20052;-80
2021/05/14 10:40:31;;;;;;;2.67;0.98;;;24.20;76.20;;;;;;5032767;28;20037;-77
2021/05/14 10:43:18;;;;;;;2.78;1.25;;;24.20;75.30;;;;;;5032794;28;20440;-77
2021/05/14 10:45:46;;;;;;;3.53;1.20;;;24.30;74.90;;;;;;5032689;28;20029;-79
2021/05/14 10:48:18;;;;;;;5.53;1.65;;;24.40;75.60;;;;;;5032738;28;20037;-82
2021/05/14 10:50:45;;;;;;;7.40;1.63;;;24.60;74.80;;;;;;5032690;28;20053;-82
2021/05/14 10:53:32;;;;;;;4.72;1.00;;;24.60;73.50;;;;;;5032495;28;20025;-82
2021/05/14 10:56:17;;;;;;;8.90;1.15;;;24.60;73.80;;;;;;5032497;28;20025;-82
2021/05/14 10:58:47;;;;;;;1.65;0.85;;;24.60;73.00;;;;;;5032428;28;20486;-82
2021/05/14 11:01:33;;;;;;;1.95;1.17;;;24.60;72.60;;;;;;5032270;28;20029;-81
2021/05/14 11:04:01;;;;;;;2.38;0.88;;;24.60;72.50;;;;;;5044081;28;20026;-82
2021/05/14 11:06:38;;;;;;;4.57;1.45;;;24.50;72.60;;;;;;5032060;28;20391;-81
2021/05/14 11:09:06;;;;;;;1.92;1.70;;;24.70;73.20;;;;;;5032523;28;20030;-81
2021/05/14 11:11:33;;;;;;;6.07;1.20;;;24.60;72.40;;;;;;5032429;28;20028;-81
2021/05/14 11:14:19;;;;;;;5.35;1.10;;;24.50;72.60;;;;;;5032663;28;20513;-81
2021/05/14 11:16:46;;;;;;;6.00;0.95;;;24.60;73.30;;;;;;5032346;28;20044;-81
2021/05/14 11:19:29;;;;;;;3.05;1.20;;;24.90;71.60;;;;;;5032297;28;20471;-76
2021/05/14 11:22:08;;;;;;;1.42;1.30;;;24.90;70.50;;;;;;5032346;28;20129;-80
2021/05/14 11:24:43;;;;;;;2.05;1.13;;;24.90;70.80;;;;;;5032273;28;20083;-81
2021/05/14 11:27:30;;;;;;;1.55;1.08;;;25.00;71.90;;;;;;5032155;28;20037;-81
2021/05/14 11:30:01;;;;;;;5.88;1.77;;;25.20;70.70;;;;;;5032149;28;20422;-80
2021/05/14 11:32:38;;;;;;;4.72;1.20;;;25.10;70.70;;;;;;5032148;28;20127;-77
2021/05/14 11:35:18;;;;;;;2.70;1.42;;;24.80;70.10;;;;;;5032304;28;20041;-77
2021/05/14 11:37:58;;;;;;;4.22;1.20;;;24.50;70.70;;;;;;5032351;28;20025;-78
2021/05/14 11:40:24;;;;;;;3.35;1.02;;;24.90;70.50;;;;;;5032037;28;20022;-81
2021/05/14 11:42:56;;;;;;;3.60;1.20;;;25.10;69.90;;;;;;5032206;28;20505;-81
2021/05/14 11:45:27;;;;;;;1.80;1.02;;;24.90;70.20;;;;;;5032098;28;20030;-78
2021/05/14 11:47:58;;;;;;;3.70;1.30;;;24.90;70.70;;;;;;5032144;28;20516;-81
2021/05/14 11:50:34;;;;;;;3.38;1.35;;;25.00;70.60;;;;;;5032151;28;20040;-81
2021/05/14 11:53:04;;;;;;;3.78;1.20;;;25.00;69.20;;;;;;5032036;28;20059;-81
2021/05/14 11:55:31;;;;;;;3.33;1.15;;;25.00;69.30;;;;;;5031969;28;20025;-82
2021/05/14 11:57:58;;;;;;;3.65;1.30;;;25.00;69.60;;;;;;5032065;28;20553;-81
2021/05/14 12:00:41;;;;;;;5.00;1.20;;;25.00;69.00;;;;;;5031904;28;20037;-76
2021/05/14 12:03:17;;;;;;;;;;;25.10;69.50;;;;;;5032327;28;20032;-80
2021/05/14 12:05:45;;;;;;;3.92;1.20;;;25.00;68.70;;;;;;5031876;28;19916;-80
2021/05/14 12:08:11;;;;;;;7.78;1.23;;;24.50;70.50;;;;;;5031898;28;20494;-80
2021/05/14 12:10:49;;;;;;;5.60;1.60;;;24.60;70.80;;;;;;5031928;28;20367;-81
2021/05/14 12:13:19;;;;;;;2.38;1.00;;;24.90;70.50;;;;;;5017429;28;20540;-80
2021/05/14 12:15:46;;;;;;;4.93;1.10;;;25.20;69.60;;;;;;5047890;28;20118;-81
2021/05/14 12:18:12;;;;;;;3.85;1.08;;;25.30;69.60;;;;;;5035438;28;20483;-81
2021/05/14 12:20:40;;;;;;;3.55;1.70;;;25.80;69.40;;;;;;5035372;28;20040;-81
2021/05/14 12:23:11;;;;;;;4.43;1.38;;;25.30;67.90;;;;;;5035303;28;20060;-79
2021/05/14 12:25:49;;;;;;;4.50;1.88;;;25.30;67.70;;;;;;5035335;28;20025;-80
2021/05/14 12:28:47;;;;;;;4.05;1.30;;;25.60;68.10;;;;;;5035148;28;20076;-81
2021/05/14 12:31:27;;;;;;;4.00;1.40;;;25.90;68.00;;;;;;5035286;28;20026;-80
2021/05/14 12:34:10;;;;;;;14.73;3.03;;;26.30;67.80;;;;;;5035105;28;20116;-76
2021/05/14 12:36:38;;;;;;;2.40;1.67;;;26.00;67.70;;;;;;5035057;28;20033;-76
2021/05/14 12:39:14;;;;;;;10.95;1.45;;;26.10;67.70;;;;;;5017369;28;20160;-82
2021/05/14 12:41:49;;;;;;;2.00;1.17;;;26.30;66.80;;;;;;5034989;28;20028;-81
2021/05/14 12:44:24;;;;;;;3.45;1.05;;;26.20;66.40;;;;;;5034950;28;20033;-81
2021/05/14 12:46:59;;;;;;;2.08;0.90;;;26.10;66.50;;;;;;5034965;28;20217;-76
2021/05/14 12:49:31;;;;;;;4.43;1.30;;;25.90;66.20;;;;;;5035079;28;20025;-76
2021/05/14 12:52:05;;;;;;;4.60;1.35;;;25.80;67.90;;;;;;5034852;28;20422;-80
2021/05/14 12:54:33;;;;;;;2.85;1.17;;;25.90;68.30;;;;;;5034906;28;20550;-81
2021/05/14 12:57:00;;;;;;;2.90;1.00;;;25.90;67.50;;;;;;5034847;28;20494;-81
2021/05/14 12:59:26;;;;;;;2.47;1.10;;;25.90;66.80;;;;;;5034500;28;20168;-81